Time;durP1;ratioP1;P1;durP2;ratioP2;P2;SDS_P1;SDS_P2;PMS_P1;PMS_P2;Temp;Humidity;BMP_temperature;BMP_pressure;BME280_temperature;BME280_humidity;BME280_pressure;Samples;Min_cycle;Max_cycle;Signal;HPM_P1;HPM_P2
2022/03/24 00:01:18;;;;;;;35.75;20.17;;;;;;;;;;4999378;28;92978;-74
2022/03/24 00:03:46;;;;;;;38.03;22.65;;;;;;;;;;4997132;28;91425;-75
2022/03/24 00:06:13;;;;;;;38.40;21.20;;;;;;;;;;4996378;28;92254;-73
2022/03/24 00:08:40;;;;;;;35.92;20.98;;;;;;;;;;4996223;28;93186;-73
2022/03/24 00:11:06;;;;;;;38.85;20.92;;;;;;;;;;4994503;28;94696;-73
2022/03/24 00:13:32;;;;;;;37.60;20.85;;;;;;;;;;4995069;28;98896;-72
2022/03/24 00:15:59;;;;;;;41.75;21.85;;;;;;;;;;4996244;28;93289;-72
2022/03/24 00:18:25;;;;;;;33.58;21.55;;;;;;;;;;4995942;28;92886;-72
2022/03/24 00:20:51;;;;;;;52.08;23.70;;;;;;;;;;4994904;28;93973;-74
2022/03/24 00:23:18;;;;;;;43.53;22.42;;;;;;;;;;4999271;28;93267;-73
2022/03/24 00:25:49;;;;;;;46.63;22.60;;;;;;;;;;4996181;28;92415;-74
2022/03/24 00:28:16;;;;;;;40.40;22.83;;;;;;;;;;4997566;28;93413;-74
2022/03/24 00:30:44;;;;;;;40.22;21.30;;;;;;;;;;4998391;28;92842;-74
2022/03/24 00:33:11;;;;;;;37.58;22.98;;;;;;;;;;4998483;28;94994;-75
2022/03/24 00:35:38;;;;;;;39.55;22.15;;;;;;;;;;4998011;28;96223;-73
2022/03/24 00:38:05;;;;;;;41.40;22.70;;;;;;;;;;4998965;28;92339;-75
2022/03/24 00:40:32;;;;;;;34.78;20.95;;;;;;;;;;4999518;28;93806;-73
2022/03/24 00:43:01;;;;;;;42.97;24.70;;;;;;;;;;5002608;28;93073;-75
2022/03/24 00:45:27;;;;;;;52.30;24.40;;;;;;;;;;4999079;28;93366;-72
2022/03/24 00:47:54;;;;;;;41.15;23.38;;;;;;;;;;4999097;28;93245;-74
2022/03/24 00:50:20;;;;;;;40.42;24.40;;;;;;;;;;4999321;28;92297;-74
2022/03/24 00:52:47;;;;;;;43.95;24.85;;;;;;;;;;4999202;28;93383;-74
2022/03/24 00:55:17;;;;;;;41.83;23.63;;;;;;;;;;4998029;28;94449;-74
2022/03/24 00:57:45;;;;;;;44.70;25.10;;;;;;;;;;4999291;28;92288;-73
2022/03/24 01:00:15;;;;;;;45.88;24.40;;;;;;;;;;4997761;28;94761;-74
2022/03/24 01:02:42;;;;;;;44.80;25.45;;;;;;;;;;4999118;28;93075;-72
2022/03/24 01:05:08;;;;;;;49.08;25.40;;;;;;;;;;4998730;28;92239;-73
2022/03/24 01:07:35;;;;;;;46.90;27.50;;;;;;;;;;4999374;28;93620;-74
2022/03/24 01:10:03;;;;;;;44.45;26.63;;;;;;;;;;4999001;28;92257;-72
2022/03/24 01:12:29;;;;;;;44.97;25.88;;;;;;;;;;4997753;28;95773;-75
2022/03/24 01:14:57;;;;;;;44.35;26.45;;;;;;;;;;4998909;28;94207;-75
2022/03/24 01:17:26;;;;;;;51.88;26.77;;;;;;;;;;4999615;28;91622;-73
2022/03/24 01:19:52;;;;;;;49.33;26.70;;;;;;;;;;5013722;28;94208;-72
2022/03/24 01:22:19;;;;;;;45.10;26.10;;;;;;;;;;4998561;28;93558;-74
2022/03/24 01:24:47;;;;;;;48.50;26.15;;;;;;;;;;4995947;28;94759;-75
2022/03/24 01:27:14;;;;;;;48.55;26.38;;;;;;;;;;5016983;28;98019;-75
2022/03/24 01:29:40;;;;;;;48.03;26.38;;;;;;;;;;4997563;28;92313;-74
2022/03/24 01:32:07;;;;;;;51.60;25.83;;;;;;;;;;4997331;28;94102;-75
2022/03/24 01:34:34;;;;;;;48.45;25.63;;;;;;;;;;4998179;28;93578;-73
2022/03/24 01:37:01;;;;;;;46.50;25.02;;;;;;;;;;4997446;28;93293;-75
2022/03/24 01:39:28;;;;;;;47.00;25.38;;;;;;;;;;4979102;28;93150;-73
2022/03/24 01:41:54;;;;;;;54.10;27.40;;;;;;;;;;5004003;28;95207;-73
2022/03/24 01:44:23;;;;;;;54.33;27.23;;;;;;;;;;5006140;28;92421;-73
2022/03/24 01:46:54;;;;;;;44.72;26.48;;;;;;;;;;4998317;28;93414;-73
2022/03/24 01:49:24;;;;;;;49.95;26.25;;;;;;;;;;4998709;28;98559;-73
2022/03/24 01:51:50;;;;;;;55.88;27.15;;;;;;;;;;4998299;28;95919;-75
2022/03/24 01:54:17;;;;;;;50.25;27.40;;;;;;;;;;4996893;28;97083;-77
2022/03/24 01:56:43;;;;;;;53.17;26.63;;;;;;;;;;4998334;28;92347;-76
2022/03/24 01:59:12;;;;;;;56.00;27.88;;;;;;;;;;4997204;28;95791;-75
2022/03/24 02:01:38;;;;;;;42.00;24.00;;;;;;;;;;4996471;28;94531;-76
2022/03/24 02:04:05;;;;;;;46.85;26.67;;;;;;;;;;4998196;28;92528;-74
2022/03/24 02:06:32;;;;;;;50.40;26.55;;;;;;;;;;4997637;28;96365;-75
2022/03/24 02:08:59;;;;;;;52.45;26.95;;;;;;;;;;4996712;28;95473;-74
2022/03/24 02:11:26;;;;;;;48.58;27.55;;;;;;;;;;5001553;28;92324;-74
2022/03/24 02:13:54;;;;;;;55.13;28.77;;;;;;;;;;4995491;28;98450;-76
2022/03/24 02:16:27;;;;;;;57.90;29.90;;;;;;;;;;4997148;28;92413;-73
2022/03/24 02:18:59;;;;;;;60.13;29.98;;;;;;;;;;4996882;28;95516;-76
2022/03/24 02:21:26;;;;;;;63.13;31.57;;;;;;;;;;5002817;28;96199;-75
2022/03/24 02:23:53;;;;;;;70.88;31.90;;;;;;;;;;5005245;28;92373;-74
2022/03/24 02:26:20;;;;;;;57.30;31.50;;;;;;;;;;5004833;28;93456;-74
2022/03/24 02:28:46;;;;;;;56.03;31.17;;;;;;;;;;5003853;28;93208;-74
2022/03/24 02:31:13;;;;;;;58.78;31.67;;;;;;;;;;5005108;28;91486;-73
2022/03/24 02:33:40;;;;;;;59.15;31.30;;;;;;;;;;5005787;28;92227;-74
2022/03/24 02:36:07;;;;;;;65.90;31.88;;;;;;;;;;4997627;28;92650;-73
2022/03/24 02:38:33;;;;;;;59.08;30.73;;;;;;;;;;4996295;28;94723;-76
2022/03/24 02:40:59;;;;;;;59.10;29.50;;;;;;;;;;4996842;28;93688;-73
2022/03/24 02:43:26;;;;;;;59.80;30.55;;;;;;;;;;4997349;28;92354;-74
2022/03/24 02:45:54;;;;;;;57.08;30.67;;;;;;;;;;4996474;28;96941;-77
2022/03/24 02:48:23;;;;;;;61.17;30.63;;;;;;;;;;4997486;28;93279;-74
2022/03/24 02:50:50;;;;;;;62.17;30.48;;;;;;;;;;4997710;28;92398;-74
2022/03/24 02:53:16;;;;;;;64.75;30.00;;;;;;;;;;5000815;28;93357;-74
2022/03/24 02:55:42;;;;;;;58.00;29.83;;;;;;;;;;4997345;28;91954;-74
2022/03/24 02:58:09;;;;;;;62.78;30.17;;;;;;;;;;4996067;28;95604;-74
2022/03/24 03:00:35;;;;;;;56.15;29.02;;;;;;;;;;4996417;28;93514;-73
2022/03/24 03:03:01;;;;;;;57.40;29.00;;;;;;;;;;4994848;28;94832;-73
2022/03/24 03:05:28;;;;;;;57.50;30.35;;;;;;;;;;4997031;28;96157;-74
2022/03/24 03:07:54;;;;;;;55.72;30.50;;;;;;;;;;4997330;28;93522;-73
2022/03/24 03:10:21;;;;;;;56.55;30.38;;;;;;;;;;4996588;28;92261;-75
2022/03/24 03:12:48;;;;;;;57.95;31.02;;;;;;;;;;4996063;28;94345;-75
2022/03/24 03:15:14;;;;;;;65.57;30.55;;;;;;;;;;5000088;28;93949;-74
2022/03/24 03:17:41;;;;;;;55.72;30.48;;;;;;;;;;4997017;28;93838;-75
2022/03/24 03:20:07;;;;;;;59.20;32.78;;;;;;;;;;4997428;28;93060;-73
2022/03/24 03:22:34;;;;;;;66.20;33.55;;;;;;;;;;4996668;28;92386;-74
2022/03/24 03:25:00;;;;;;;62.17;32.88;;;;;;;;;;4996173;28;93240;-73
2022/03/24 03:27:32;;;;;;;70.30;33.75;;;;;;;;;;4995169;28;95665;-73
2022/03/24 03:29:58;;;;;;;63.38;32.67;;;;;;;;;;4997082;28;92160;-74
2022/03/24 03:32:25;;;;;;;71.65;33.95;;;;;;;;;;4996808;28;93361;-74
2022/03/24 03:34:51;;;;;;;71.32;33.63;;;;;;;;;;4996819;28;93527;-73
2022/03/24 03:37:17;;;;;;;61.45;32.05;;;;;;;;;;4999901;28;92250;-75
2022/03/24 03:39:44;;;;;;;64.78;33.45;;;;;;;;;;4996241;28;93392;-75
2022/03/24 03:42:10;;;;;;;65.95;32.95;;;;;;;;;;4996791;28;92241;-74
2022/03/24 03:44:36;;;;;;;67.03;33.50;;;;;;;;;;4996686;28;92887;-76
2022/03/24 03:47:03;;;;;;;61.15;32.90;;;;;;;;;;4996660;28;93242;-76
2022/03/24 03:49:30;;;;;;;59.13;31.40;;;;;;;;;;4996750;28;92334;-74
2022/03/24 03:52:16;;;;;;;62.53;33.03;;;;;;;;;;5002576;28;94664;-74
2022/03/24 03:54:43;;;;;;;63.40;33.08;;;;;;;;;;5005713;28;93660;-74
2022/03/24 03:57:10;;;;;;;67.68;31.08;;;;;;;;;;4996336;28;92275;-76
2022/03/24 03:59:38;;;;;;;64.13;31.65;;;;;;;;;;4998339;28;94336;-75
2022/03/24 04:02:04;;;;;;;69.38;33.55;;;;;;;;;;4996381;28;92260;-74
2022/03/24 04:04:31;;;;;;;60.63;31.42;;;;;;;;;;4995795;28;93361;-74
2022/03/24 04:06:57;;;;;;;57.67;32.20;;;;;;;;;;4996274;28;92965;-75
2022/03/24 04:09:24;;;;;;;60.80;31.52;;;;;;;;;;4995541;28;93201;-76
2022/03/24 04:11:50;;;;;;;62.60;31.15;;;;;;;;;;4994197;28;92620;-75
2022/03/24 04:14:17;;;;;;;69.78;32.17;;;;;;;;;;4995558;28;92382;-78
2022/03/24 04:16:43;;;;;;;59.70;33.30;;;;;;;;;;4994731;28;94656;-76
2022/03/24 04:19:10;;;;;;;57.67;32.60;;;;;;;;;;4995640;28;95889;-74
2022/03/24 04:21:36;;;;;;;65.55;32.10;;;;;;;;;;4999286;28;94239;-75
2022/03/24 04:24:03;;;;;;;61.97;31.67;;;;;;;;;;4996390;28;93657;-76
2022/03/24 04:26:30;;;;;;;63.63;31.38;;;;;;;;;;4996049;28;94456;-74
2022/03/24 04:28:56;;;;;;;59.85;31.05;;;;;;;;;;4995857;28;92304;-76
2022/03/24 04:31:22;;;;;;;60.03;31.00;;;;;;;;;;4997138;28;93000;-75
2022/03/24 04:33:49;;;;;;;61.00;32.45;;;;;;;;;;4996033;28;91624;-73
2022/03/24 04:36:16;;;;;;;56.75;31.02;;;;;;;;;;4996265;28;92318;-75
2022/03/24 04:38:42;;;;;;;62.95;31.35;;;;;;;;;;4995853;28;92702;-74
2022/03/24 04:41:09;;;;;;;61.75;31.00;;;;;;;;;;4993822;28;95874;-74
2022/03/24 04:43:35;;;;;;;60.33;31.77;;;;;;;;;;4998449;28;92397;-75
2022/03/24 04:46:02;;;;;;;73.63;33.75;;;;;;;;;;4995591;28;93525;-75
2022/03/24 04:48:32;;;;;;;74.65;33.67;;;;;;;;;;4995894;28;92372;-76
2022/03/24 04:51:00;;;;;;;60.97;33.38;;;;;;;;;;4995842;28;93306;-75
2022/03/24 04:53:26;;;;;;;63.83;32.28;;;;;;;;;;4995840;28;94240;-75
2022/03/24 04:55:53;;;;;;;64.45;34.38;;;;;;;;;;4994553;28;92371;-74
2022/03/24 04:58:19;;;;;;;65.65;33.00;;;;;;;;;;4996206;28;93357;-75
2022/03/24 05:00:45;;;;;;;80.05;35.47;;;;;;;;;;4995524;28;93711;-75
2022/03/24 05:03:12;;;;;;;64.22;31.73;;;;;;;;;;4998820;28;92315;-75
2022/03/24 05:05:38;;;;;;;63.60;32.70;;;;;;;;;;4994065;28;95943;-76
2022/03/24 05:08:06;;;;;;;62.90;31.80;;;;;;;;;;4995418;28;92347;-75
2022/03/24 05:10:33;;;;;;;65.80;31.08;;;;;;;;;;4994610;28;93423;-75
2022/03/24 05:13:00;;;;;;;57.92;30.38;;;;;;;;;;4995554;28;93702;-75
2022/03/24 05:15:27;;;;;;;57.55;30.00;;;;;;;;;;4997250;28;92279;-75
2022/03/24 05:17:53;;;;;;;63.72;30.70;;;;;;;;;;4998950;28;92892;-76
2022/03/24 05:20:20;;;;;;;62.70;29.92;;;;;;;;;;4998700;28;93504;-73
2022/03/24 05:22:46;;;;;;;55.85;30.75;;;;;;;;;;4998978;28;92363;-75
2022/03/24 05:25:14;;;;;;;61.13;30.17;;;;;;;;;;5000708;28;93153;-74
2022/03/24 05:27:40;;;;;;;64.43;30.70;;;;;;;;;;4998447;28;92257;-74
2022/03/24 05:30:07;;;;;;;58.92;31.33;;;;;;;;;;4996975;28;94752;-73
2022/03/24 05:32:34;;;;;;;59.55;29.90;;;;;;;;;;4998505;28;93642;-74
2022/03/24 05:35:00;;;;;;;59.90;29.77;;;;;;;;;;4998186;28;92842;-75
2022/03/24 05:37:27;;;;;;;56.10;30.52;;;;;;;;;;4998328;28;93517;-75
2022/03/24 05:39:53;;;;;;;64.53;30.52;;;;;;;;;;5000477;28;95300;-73
2022/03/24 05:42:20;;;;;;;63.58;31.75;;;;;;;;;;4998638;28;92319;-75
2022/03/24 05:44:46;;;;;;;61.83;31.15;;;;;;;;;;4998209;28;93473;-76
2022/03/24 05:47:14;;;;;;;62.63;29.92;;;;;;;;;;5002108;28;92310;-75
2022/03/24 05:49:40;;;;;;;64.85;30.92;;;;;;;;;;4998820;28;92230;-75
2022/03/24 05:52:28;;;;;;;58.55;29.98;;;;;;;;;;4997272;28;96063;-74
2022/03/24 05:54:55;;;;;;;60.30;29.20;;;;;;;;;;4996884;28;94755;-74
2022/03/24 05:57:23;;;;;;;57.55;28.80;;;;;;;;;;4996794;28;96889;-74
2022/03/24 05:59:51;;;;;;;58.42;30.25;;;;;;;;;;4997945;28;94483;-75
2022/03/24 06:02:20;;;;;;;52.53;28.60;;;;;;;;;;5010117;28;92187;-72
2022/03/24 06:04:47;;;;;;;55.40;29.92;;;;;;;;;;4999273;28;94373;-73
2022/03/24 06:07:14;;;;;;;62.70;30.05;;;;;;;;;;4997992;28;94744;-73
2022/03/24 06:09:40;;;;;;;58.38;29.23;;;;;;;;;;5000983;28;92265;-75
2022/03/24 06:12:10;;;;;;;61.65;30.13;;;;;;;;;;4998488;28;93137;-73
2022/03/24 06:14:37;;;;;;;58.85;30.80;;;;;;;;;;4998275;28;92359;-74
2022/03/24 06:17:05;;;;;;;56.97;30.67;;;;;;;;;;4997642;28;92983;-73
2022/03/24 06:19:31;;;;;;;56.30;30.42;;;;;;;;;;4995247;28;95501;-74
2022/03/24 06:21:58;;;;;;;57.67;31.38;;;;;;;;;;4997645;28;92400;-73
2022/03/24 06:24:25;;;;;;;56.58;30.08;;;;;;;;;;4997812;28;93932;-74
2022/03/24 06:26:52;;;;;;;62.65;30.90;;;;;;;;;;4995151;28;93774;-73
2022/03/24 06:29:19;;;;;;;58.38;30.80;;;;;;;;;;4996991;28;92286;-73
2022/03/24 06:31:45;;;;;;;67.63;31.55;;;;;;;;;;5000163;28;92914;-76
2022/03/24 06:34:12;;;;;;;51.03;29.70;;;;;;;;;;4996729;28;92313;-73
2022/03/24 06:36:38;;;;;;;61.40;33.58;;;;;;;;;;4998049;28;93751;-74
2022/03/24 06:39:05;;;;;;;83.82;45.67;;;;;;;;;;4997452;28;93617;-75
2022/03/24 06:41:32;;;;;;;95.63;50.75;;;;;;;;;;4997403;28;92334;-75
2022/03/24 06:43:59;;;;;;;69.28;37.50;;;;;;;;;;4995975;28;95249;-73
2022/03/24 06:46:26;;;;;;;57.90;30.83;;;;;;;;;;4997200;28;93405;-73
2022/03/24 06:48:53;;;;;;;57.42;31.75;;;;;;;;;;4997861;28;92347;-72
2022/03/24 06:51:19;;;;;;;61.60;35.08;;;;;;;;;;4999187;28;93529;-72
2022/03/24 06:53:46;;;;;;;61.92;34.20;;;;;;;;;;4996577;28;92844;-73
2022/03/24 06:56:12;;;;;;;54.30;32.55;;;;;;;;;;4997216;28;92824;-72
2022/03/24 06:58:39;;;;;;;53.80;32.55;;;;;;;;;;4996855;28;93112;-73
2022/03/24 07:01:05;;;;;;;62.47;33.92;;;;;;;;;;4997587;28;91484;-73
2022/03/24 07:03:33;;;;;;;53.35;32.22;;;;;;;;;;4997547;28;92417;-74
2022/03/24 07:05:59;;;;;;;54.88;32.95;;;;;;;;;;4997123;28;93319;-74
2022/03/24 07:08:26;;;;;;;54.45;31.90;;;;;;;;;;4995853;28;94770;-72
2022/03/24 07:10:53;;;;;;;55.33;32.08;;;;;;;;;;4996939;28;95907;-74
2022/03/24 07:13:19;;;;;;;59.35;33.17;;;;;;;;;;4999696;28;93808;-74
2022/03/24 07:15:46;;;;;;;54.50;34.40;;;;;;;;;;4996911;28;93749;-74
2022/03/24 07:18:12;;;;;;;61.00;34.28;;;;;;;;;;4996457;28;94636;-75
2022/03/24 07:20:39;;;;;;;59.00;33.85;;;;;;;;;;4996856;28;92380;-74
2022/03/24 07:23:08;;;;;;;56.00;35.08;;;;;;;;;;4996921;28;93350;-74
2022/03/24 07:25:39;;;;;;;61.28;34.88;;;;;;;;;;4997302;28;93076;-73
2022/03/24 07:28:07;;;;;;;64.27;36.00;;;;;;;;;;4996565;28;92322;-73
2022/03/24 07:30:33;;;;;;;57.95;35.40;;;;;;;;;;4996651;28;92917;-73
2022/03/24 07:33:01;;;;;;;68.15;36.78;;;;;;;;;;4994087;28;95337;-74
2022/03/24 07:35:28;;;;;;;67.47;36.25;;;;;;;;;;4999781;28;92349;-73
2022/03/24 07:37:54;;;;;;;73.90;37.85;;;;;;;;;;4995705;28;93699;-72
2022/03/24 07:40:22;;;;;;;69.65;38.17;;;;;;;;;;4996491;28;92234;-71
2022/03/24 07:42:49;;;;;;;76.75;38.05;;;;;;;;;;4996306;28;93452;-72
2022/03/24 07:45:16;;;;;;;71.22;38.30;;;;;;;;;;4996386;28;93268;-72
2022/03/24 07:48:01;;;;;;;65.18;38.50;;;;;;;;;;4996499;28;92350;-72
2022/03/24 07:50:34;;;;;;;63.77;37.33;;;;;;;;;;4997042;28;93366;-72
2022/03/24 07:53:04;;;;;;;59.58;36.38;;;;;;;;;;4995970;28;93946;-72
2022/03/24 07:55:31;;;;;;;61.30;36.15;;;;;;;;;;4996563;28;92595;-73
2022/03/24 07:57:57;;;;;;;60.15;36.15;;;;;;;;;;4998301;28;94677;-73
2022/03/24 08:00:24;;;;;;;61.80;36.13;;;;;;;;;;5000236;28;92180;-71
2022/03/24 08:02:52;;;;;;;57.13;38.13;;;;;;;;;;5002513;28;92798;-71
2022/03/24 08:05:19;;;;;;;60.10;35.97;;;;;;;;;;5002257;28;93735;-72
2022/03/24 08:07:45;;;;;;;51.92;36.75;;;;;;;;;;4999573;28;92425;-72
2022/03/24 08:10:11;;;;;;;57.00;35.67;;;;;;;;;;4997616;28;93321;-72
2022/03/24 08:12:38;;;;;;;54.25;34.78;;;;;;;;;;4998320;28;93487;-74
2022/03/24 08:15:04;;;;;;;58.47;36.67;;;;;;;;;;4999158;28;91530;-74
2022/03/24 08:17:30;;;;;;;60.33;36.55;;;;;;;;;;4996373;28;92738;-73
2022/03/24 08:19:57;;;;;;;63.35;35.88;;;;;;;;;;4999737;28;93555;-73
2022/03/24 08:22:24;;;;;;;62.78;38.63;;;;;;;;;;4993634;28;94783;-73
2022/03/24 08:24:50;;;;;;;64.63;36.78;;;;;;;;;;4994295;28;93259;-73
2022/03/24 08:27:16;;;;;;;63.72;37.50;;;;;;;;;;4960660;28;92475;-74
2022/03/24 08:29:43;;;;;;;68.47;37.90;;;;;;;;;;4996107;28;93236;-73
2022/03/24 08:32:12;;;;;;;63.15;37.42;;;;;;;;;;4995663;28;93670;-74
2022/03/24 08:34:38;;;;;;;65.35;37.38;;;;;;;;;;4995763;28;92884;-74
2022/03/24 08:37:05;;;;;;;65.45;37.97;;;;;;;;;;4995625;28;93990;-75
2022/03/24 08:39:32;;;;;;;71.10;36.97;;;;;;;;;;4996258;28;93964;-73
2022/03/24 08:41:59;;;;;;;59.70;37.45;;;;;;;;;;4998983;28;92353;-73
2022/03/24 08:44:25;;;;;;;75.07;36.63;;;;;;;;;;4995372;28;95473;-74
2022/03/24 08:46:51;;;;;;;64.03;36.90;;;;;;;;;;4994001;28;94730;-76
2022/03/24 08:49:18;;;;;;;63.15;36.72;;;;;;;;;;4996538;28;95146;-73
2022/03/24 08:51:45;;;;;;;57.08;34.92;;;;;;;;;;4998853;28;93995;-74
2022/03/24 08:54:12;;;;;;;60.70;36.95;;;;;;;;;;4998741;28;92242;-75
2022/03/24 08:56:38;;;;;;;67.25;37.42;;;;;;;;;;4997752;28;96193;-75
2022/03/24 08:59:04;;;;;;;54.58;37.45;;;;;;;;;;4998705;28;95690;-76
2022/03/24 09:01:31;;;;;;;56.40;37.15;;;;;;;;;;5002182;28;92304;-75
2022/03/24 09:03:58;;;;;;;49.50;36.55;;;;;;;;;;4994990;28;93843;-75
2022/03/24 09:06:24;;;;;;;49.15;34.03;;;;;;;;;;4999094;28;92677;-74
2022/03/24 09:08:52;;;;;;;64.88;34.33;;;;;;;;;;4999355;28;93535;-77
2022/03/24 09:11:18;;;;;;;55.60;34.42;;;;;;;;;;4998014;28;96030;-76
2022/03/24 09:13:45;;;;;;;48.15;33.88;;;;;;;;;;4998256;28;92433;-77
2022/03/24 09:16:12;;;;;;;52.83;33.28;;;;;;;;;;4998851;28;93129;-77
2022/03/24 09:18:38;;;;;;;65.07;35.15;;;;;;;;;;4997746;28;93559;-75
2022/03/24 09:21:05;;;;;;;48.92;34.50;;;;;;;;;;5014496;28;92204;-73
2022/03/24 09:23:31;;;;;;;54.50;32.83;;;;;;;;;;5001615;28;93405;-73
2022/03/24 09:25:58;;;;;;;42.72;33.78;;;;;;;;;;4998763;28;92338;-72
2022/03/24 09:28:44;;;;;;;51.08;31.00;;;;;;;;;;5012271;28;93491;-74
2022/03/24 09:31:10;;;;;;;44.05;31.55;;;;;;;;;;4997892;28;93716;-76
2022/03/24 09:33:37;;;;;;;48.45;31.52;;;;;;;;;;4998736;28;92371;-74
2022/03/24 09:36:03;;;;;;;47.60;33.95;;;;;;;;;;4997224;28;94713;-75
2022/03/24 09:38:30;;;;;;;58.30;32.33;;;;;;;;;;4998209;28;94040;-74
2022/03/24 09:40:56;;;;;;;47.97;30.50;;;;;;;;;;4998379;28;92318;-76
2022/03/24 09:43:23;;;;;;;41.88;32.15;;;;;;;;;;4997955;28;95225;-75
2022/03/24 09:45:52;;;;;;;46.35;31.27;;;;;;;;;;5000813;28;93550;-74
2022/03/24 09:48:19;;;;;;;50.60;31.73;;;;;;;;;;4998381;28;93097;-74
2022/03/24 09:50:46;;;;;;;54.60;31.40;;;;;;;;;;4998193;28;93729;-75
2022/03/24 09:53:13;;;;;;;39.47;28.52;;;;;;;;;;4997942;28;91648;-75
2022/03/24 09:55:40;;;;;;;42.45;28.30;;;;;;;;;;4998426;28;92936;-74
2022/03/24 09:58:06;;;;;;;53.40;28.02;;;;;;;;;;4997565;28;92860;-75
2022/03/24 10:00:38;;;;;;;50.35;28.77;;;;;;;;;;4995957;28;94653;-72
2022/03/24 10:03:09;;;;;;;48.83;27.92;;;;;;;;;;4997554;28;97335;-77
2022/03/24 10:05:36;;;;;;;48.08;27.10;;;;;;;;;;4998302;28;93000;-76
2022/03/24 10:08:03;;;;;;;44.25;26.63;;;;;;;;;;5000081;28;92285;-71
2022/03/24 10:10:31;;;;;;;41.47;25.58;;;;;;;;;;4997550;28;94547;-77
2022/03/24 10:12:57;;;;;;;42.67;25.45;;;;;;;;;;4997240;28;92363;-74
2022/03/24 10:15:24;;;;;;;41.28;25.75;;;;;;;;;;4996773;28;94288;-74
2022/03/24 10:17:52;;;;;;;34.35;26.00;;;;;;;;;;4998436;28;92488;-73
2022/03/24 10:20:19;;;;;;;43.90;27.08;;;;;;;;;;4998100;28;92202;-74
2022/03/24 10:23:03;;;;;;;38.95;26.88;;;;;;;;;;5000915;28;93378;-74
2022/03/24 10:25:31;;;;;;;38.80;25.88;;;;;;;;;;4997099;28;96281;-75
2022/03/24 10:28:02;;;;;;;37.20;26.50;;;;;;;;;;4997975;28;92224;-75
2022/03/24 10:30:28;;;;;;;37.83;24.27;;;;;;;;;;5000170;28;93666;-75
2022/03/24 10:32:56;;;;;;;60.15;26.23;;;;;;;;;;4997567;28;92278;-75
2022/03/24 10:35:22;;;;;;;41.97;24.42;;;;;;;;;;4997382;28;93498;-74
2022/03/24 10:37:50;;;;;;;38.55;25.95;;;;;;;;;;4996953;28;93960;-74
2022/03/24 10:40:16;;;;;;;30.70;24.02;;;;;;;;;;4997564;28;92173;-74
2022/03/24 10:42:43;;;;;;;39.85;24.00;;;;;;;;;;4997733;28;92932;-75
2022/03/24 10:45:20;;;;;;;39.33;23.95;;;;;;;;;;4996939;28;94220;-74
2022/03/24 10:47:49;;;;;;;43.97;23.33;;;;;;;;;;4997493;28;92174;-74
2022/03/24 10:50:38;;;;;;;35.47;22.67;;;;;;;;;;4995172;28;94591;-74
2022/03/24 10:53:07;;;;;;;34.15;23.73;;;;;;;;;;5000229;28;93724;-75
2022/03/24 10:55:39;;;;;;;48.90;24.98;;;;;;;;;;4997529;28;92244;-73
2022/03/24 10:58:23;;;;;;;39.30;24.50;;;;;;;;;;4997080;28;93651;-73
2022/03/24 11:00:54;;;;;;;41.15;24.27;;;;;;;;;;4996872;28;92203;-73
2022/03/24 11:03:21;;;;;;;44.65;24.30;;;;;;;;;;4997217;28;93547;-74
2022/03/24 11:05:48;;;;;;;33.40;23.73;;;;;;;;;;4997035;28;93514;-75
2022/03/24 11:08:14;;;;;;;41.08;24.70;;;;;;;;;;4997661;28;91686;-76
2022/03/24 11:10:48;;;;;;;42.78;24.40;;;;;;;;;;4997113;28;92630;-74
2022/03/24 11:13:23;;;;;;;44.55;23.75;;;;;;;;;;4998537;28;93247;-76
2022/03/24 11:15:51;;;;;;;32.75;23.25;;;;;;;;;;4994155;28;94693;-75
2022/03/24 11:18:19;;;;;;;34.95;22.85;;;;;;;;;;4996698;28;93625;-74
2022/03/24 11:20:46;;;;;;;34.67;22.55;;;;;;;;;;4997003;28;92421;-75
2022/03/24 11:23:16;;;;;;;41.38;22.17;;;;;;;;;;4997123;28;93465;-75
2022/03/24 11:25:43;;;;;;;44.05;22.98;;;;;;;;;;4996056;28;95023;-75
2022/03/24 11:28:11;;;;;;;40.53;24.42;;;;;;;;;;4995352;28;92408;-76
2022/03/24 11:30:38;;;;;;;39.97;24.77;;;;;;;;;;4996856;28;93195;-75
2022/03/24 11:33:04;;;;;;;36.45;23.83;;;;;;;;;;4997583;28;92685;-79
2022/03/24 11:35:34;;;;;;;46.53;24.05;;;;;;;;;;4999884;28;92264;-77
2022/03/24 11:38:01;;;;;;;30.13;22.25;;;;;;;;;;4997105;28;93731;-76
2022/03/24 11:40:30;;;;;;;49.38;25.58;;;;;;;;;;4994551;28;95061;-75
2022/03/24 11:42:56;;;;;;;32.45;24.63;;;;;;;;;;4996481;28;94262;-76
2022/03/24 11:45:22;;;;;;;33.15;23.40;;;;;;;;;;4996112;28;93871;-78
2022/03/24 11:47:52;;;;;;;39.55;24.80;;;;;;;;;;4996463;28;92220;-77
2022/03/24 11:50:33;;;;;;;41.20;24.23;;;;;;;;;;4996414;28;94289;-75
2022/03/24 11:53:08;;;;;;;39.33;25.20;;;;;;;;;;4996414;28;92321;-75
2022/03/24 11:55:37;;;;;;;41.67;25.95;;;;;;;;;;4996346;28;92357;-79
2022/03/24 11:58:04;;;;;;;40.65;25.98;;;;;;;;;;5000187;28;92963;-76
2022/03/24 12:00:37;;;;;;;41.28;25.05;;;;;;;;;;4996887;28;92166;-80
2022/03/24 12:03:23;;;;;;;42.80;25.02;;;;;;;;;;4996783;28;92713;-75
2022/03/24 12:05:55;;;;;;;39.72;26.48;;;;;;;;;;4994592;28;95740;-76
2022/03/24 12:08:26;;;;;;;61.63;25.90;;;;;;;;;;4995702;28;92723;-77
2022/03/24 12:10:54;;;;;;;36.00;22.83;;;;;;;;;;4996626;28;93996;-74
2022/03/24 12:13:21;;;;;;;35.53;21.83;;;;;;;;;;4995350;28;92642;-78
2022/03/24 12:16:08;;;;;;;42.17;21.33;;;;;;;;;;4995950;28;92535;-76
2022/03/24 12:18:41;;;;;;;32.58;21.80;;;;;;;;;;4988695;28;96335;-75
2022/03/24 12:21:08;;;;;;;39.10;21.98;;;;;;;;;;4999008;28;93632;-76
2022/03/24 12:23:53;;;;;;;38.58;22.63;;;;;;;;;;4995833;28;92813;-73
2022/03/24 12:26:22;;;;;;;31.83;22.30;;;;;;;;;;4999287;28;93407;-74
2022/03/24 12:29:10;;;;;;;32.50;21.88;;;;;;;;;;4999742;28;92262;-74
2022/03/24 12:32:04;;;;;;;34.72;21.35;;;;;;;;;;5004438;28;94729;-73
2022/03/24 12:34:39;;;;;;;33.85;21.15;;;;;;;;;;4998274;28;92941;-73
2022/03/24 12:37:07;;;;;;;39.00;20.13;;;;;;;;;;4999687;28;92252;-74
2022/03/24 12:39:38;;;;;;;29.00;21.17;;;;;;;;;;4997751;28;92766;-75
2022/03/24 12:42:11;;;;;;;38.50;23.40;;;;;;;;;;4997058;28;95165;-76
2022/03/24 12:44:55;;;;;;;49.45;24.20;;;;;;;;;;5001928;28;92878;-75
2022/03/24 12:47:32;;;;;;;61.60;34.33;;;;;;;;;;4999048;28;93489;-75
2022/03/24 12:49:59;;;;;;;38.42;23.95;;;;;;;;;;4999960;28;91501;-75
2022/03/24 12:52:45;;;;;;;39.67;21.92;;;;;;;;;;4998231;28;92825;-74
2022/03/24 12:55:19;;;;;;;45.00;24.13;;;;;;;;;;4998685;28;93233;-74
2022/03/24 12:57:59;;;;;;;39.90;22.70;;;;;;;;;;4997216;28;94828;-75
2022/03/24 13:00:30;;;;;;;41.53;24.42;;;;;;;;;;4999153;28;94942;-74
2022/03/24 13:02:59;;;;;;;36.78;23.40;;;;;;;;;;4999070;28;93242;-73
2022/03/24 13:05:28;;;;;;;39.20;23.83;;;;;;;;;;4999183;28;92191;-74
2022/03/24 13:07:55;;;;;;;41.83;24.05;;;;;;;;;;5001994;28;93566;-75
2022/03/24 13:10:22;;;;;;;36.20;23.88;;;;;;;;;;4998723;28;92236;-75
2022/03/24 13:12:50;;;;;;;36.38;24.13;;;;;;;;;;4998863;28;93950;-76
2022/03/24 13:15:24;;;;;;;49.38;24.30;;;;;;;;;;4999499;28;92775;-75
2022/03/24 13:17:53;;;;;;;51.40;24.55;;;;;;;;;;4999087;28;92401;-75
2022/03/24 13:20:21;;;;;;;53.00;24.05;;;;;;;;;;4998718;28;93871;-76
2022/03/24 13:22:48;;;;;;;37.80;23.08;;;;;;;;;;4996694;28;96135;-76
2022/03/24 13:25:15;;;;;;;34.53;23.30;;;;;;;;;;4998816;28;92297;-78
2022/03/24 13:27:46;;;;;;;87.45;26.33;;;;;;;;;;5009947;28;93788;-75
2022/03/24 13:30:14;;;;;;;36.50;22.95;;;;;;;;;;5007713;28;92168;-75
2022/03/24 13:32:41;;;;;;;44.20;22.40;;;;;;;;;;5005739;28;92420;-75
2022/03/24 13:35:09;;;;;;;54.63;22.95;;;;;;;;;;5003478;28;94683;-76
2022/03/24 13:37:43;;;;;;;37.50;24.42;;;;;;;;;;5004082;28;92165;-75
2022/03/24 13:40:11;;;;;;;36.75;23.98;;;;;;;;;;5003341;28;91703;-76
2022/03/24 13:42:38;;;;;;;36.03;23.58;;;;;;;;;;4999123;28;93300;-77
2022/03/24 13:45:05;;;;;;;40.72;23.48;;;;;;;;;;4981649;28;92436;-76
2022/03/24 13:47:32;;;;;;;41.47;23.85;;;;;;;;;;4996955;28;94784;-76
2022/03/24 13:50:03;;;;;;;34.83;22.80;;;;;;;;;;5000976;28;94011;-75
2022/03/24 13:52:39;;;;;;;37.22;25.30;;;;;;;;;;4994693;28;95702;-76
2022/03/24 13:55:19;;;;;;;51.30;26.90;;;;;;;;;;4998367;28;93350;-75
2022/03/24 13:57:55;;;;;;;54.80;26.70;;;;;;;;;;4996927;28;93059;-76
2022/03/24 14:00:23;;;;;;;43.67;27.15;;;;;;;;;;4997831;28;93722;-76
2022/03/24 14:03:22;;;;;;;60.95;26.77;;;;;;;;;;4999207;28;94073;-76
2022/03/24 14:05:50;;;;;;;60.30;25.80;;;;;;;;;;4987976;28;91714;-74
2022/03/24 14:08:18;;;;;;;44.22;25.25;;;;;;;;;;4998023;28;92668;-75
2022/03/24 14:10:46;;;;;;;48.75;26.38;;;;;;;;;;4997794;28;92657;-75
2022/03/24 14:13:21;;;;;;;42.67;25.52;;;;;;;;;;4999783;28;94740;-75
2022/03/24 14:15:48;;;;;;;42.42;25.48;;;;;;;;;;4998362;28;93380;-74
2022/03/24 14:18:16;;;;;;;39.72;24.23;;;;;;;;;;4997973;28;92356;-76
2022/03/24 14:20:43;;;;;;;37.83;25.13;;;;;;;;;;4995913;28;93567;-75
2022/03/24 14:23:33;;;;;;;40.17;25.07;;;;;;;;;;4996713;28;93721;-74